Latest Weather Observations for Cape Nelson

IDV60801

Issued at 6:31 pm EDT Friday 12 February 2016 (issued every 30 minutes, with the page automatically refreshed every 10 minutes)

About weather observations | Map of weather stations | Latest weather observations for VIC | Other Formats
Station Details ID: 090184 Name: CAPE NELSON LIGHTHOUSE Lat: -38.43 Lon: 141.54 Height: 45.4 m
Data from the previous 72 hours. | See also: Recent months at Cape Nelson
Date/Time
EDT
Temp
°C
App
Temp
°C
Dew
Point
Rel
Hum
%
Delta-T
°C
Wind Press
QNH
hPa
Press
MSL
hPa
Rain
since 9 am
mm
Dir
 
Spd
km/h
Gust
km/h
Spd
kts
Gust
kts
12/06:30pm 20.0 18.6 13.5 66 3.7 ESE 13 20 7 11 1012.1 1012.0 0.0
12/06:00pm 20.6 19.4 14.0 66 3.8 ESE 13 20 7 11 1012.2 1012.1 0.0
12/05:30pm 20.8 19.2 14.0 65 3.9 SE 15 20 8 11 1012.6 1012.5 0.0
12/05:00pm 21.4 19.4 13.8 62 4.4 SE 17 22 9 12 1012.9 1012.8 0.0
12/04:30pm 21.1 19.0 13.5 62 4.4 SE 17 22 9 12 1013.1 1013.0 0.0
12/04:00pm 21.0 18.6 13.7 63 4.2 SE 19 24 10 13 1013.3 1013.2 0.0
12/03:30pm 21.1 18.8 14.0 64 4.1 SE 19 24 10 13 1013.8 1013.7 0.0
12/03:00pm 21.3 18.9 13.7 62 4.4 SE 19 24 10 13 1014.1 1014.0 0.0
12/02:30pm 21.7 20.2 14.1 62 4.4 ESE 15 20 8 11 1014.6 1014.5 0.0
12/02:00pm 22.1 20.7 14.5 62 4.5 ESE 15 19 8 10 1014.6 1014.5 0.0
12/01:30pm 22.1 20.6 14.2 61 4.6 ESE 15 20 8 11 1015.0 1014.9 0.0
12/01:00pm 21.5 19.6 14.2 63 4.3 E 17 24 9 13 1015.1 1015.0 0.0
12/12:30pm 21.3 19.0 14.0 63 4.2 E 19 24 10 13 1015.5 1015.4 0.0
12/12:00pm 21.2 18.2 13.6 62 4.4 E 22 26 12 14 1015.9 1015.8 0.0
12/11:30am 21.0 18.2 14.4 66 3.9 E 22 26 12 14 1016.3 1016.2 0.0
12/11:00am 20.6 18.0 13.8 65 3.9 E 20 24 11 13 1016.5 1016.4 0.0
12/10:30am 20.3 18.0 14.2 68 3.5 E 19 22 10 12 1016.9 1016.8 0.0
12/10:00am 19.7 17.2 14.1 70 3.2 E 20 24 11 13 1017.0 1016.9 0.0
12/09:30am 19.6 17.7 14.2 71 3.1 E 17 24 9 13 1016.9 1016.8 0.0
12/09:00am 19.1 17.1 13.9 72 3.0 E 17 26 9 14 1017.0 1016.9 0.0
12/08:30am 18.7 16.7 13.8 73 2.8 ENE 17 24 9 13 1016.7 1016.6 0.0
12/08:00am 17.7 15.5 13.2 75 2.5 ENE 17 22 9 12 1016.5 1016.4 0.0
12/07:30am 16.8 14.3 12.3 75 2.5 E 17 22 9 12 1016.5 1016.4 0.0
12/07:00am 16.4 13.5 12.4 77 2.2 E 19 24 10 13 1016.6 1016.5 0.0
12/06:30am 16.3 13.2 12.3 77 2.2 E 20 26 11 14 1016.1 1016.0 0.0
12/06:00am 16.5 13.2 12.7 78 2.1 E 22 28 12 15 1016.1 1016.0 0.0
12/05:30am 16.6 12.5 12.8 78 2.1 E 26 32 14 17 1016.1 1016.0 0.0
12/05:00am 16.8 12.3 12.5 76 2.4 E 28 33 15 18 1016.1 1016.0 0.0
12/04:30am 16.8 12.3 12.7 77 2.3 E 28 33 15 18 1016.3 1016.2 0.0
12/04:00am 16.8 13.9 12.9 78 2.2 E 20 30 11 16 1016.7 1016.6 0.0
12/03:30am 16.9 14.6 13.0 78 2.2 ESE 17 28 9 15 1017.0 1016.9 0.0
12/03:00am 16.9 14.4 12.2 74 2.6 ESE 17 28 9 15 1017.1 1017.0 0.0
12/02:30am 17.0 14.1 12.3 74 2.6 ESE 19 30 10 16 1017.4 1017.3 0.0
12/02:00am 17.1 14.4 13.0 77 2.3 ESE 19 28 10 15 1017.6 1017.5 0.0
12/01:30am 17.5 14.8 13.6 78 2.2 ESE 20 28 11 15 1017.9 1017.8 0.0
12/01:00am 17.3 14.7 13.2 77 2.3 ESE 19 24 10 13 1018.1 1018.0 0.0
12/12:30am 17.3 14.9 12.8 75 2.5 ESE 17 26 9 14 1018.3 1018.2 0.0
12/12:00am 17.3 15.3 12.6 74 2.6 ESE 15 24 8 13 1018.4 1018.3 0.0
 
Date/Time
EDT
Temp
°C
App
Temp
°C
Dew
Point
Rel
Hum
%
Delta-T
°C
Wind Press
QNH
hPa
Press
MSL
hPa
Rain
since 9 am
mm
Dir
 
Spd
km/h
Gust
km/h
Spd
kts
Gust
kts
11/11:30pm 17.4 15.1 12.9 75 2.5 ESE 17 24 9 13 1018.7 1018.6 0.0
11/11:00pm 17.4 14.6 12.7 74 2.6 SE 19 28 10 15 1018.9 1018.8 0.0
11/10:30pm 17.4 15.1 12.9 75 2.5 ESE 17 24 9 13 1018.8 1018.7 0.0
11/10:00pm 17.6 15.7 13.1 75 2.5 ESE 15 22 8 12 1018.4 1018.3 0.0
11/09:30pm 17.6 15.3 12.9 74 2.6 ESE 17 24 9 13 1018.1 1018.0 0.0
11/09:00pm 17.8 15.2 13.3 75 2.5 SE 19 30 10 16 1018.1 1018.0 0.0
11/08:30pm 18.0 14.9 13.3 74 2.7 SE 22 30 12 16 1018.0 1017.9 0.0
11/08:00pm 18.3 14.4 13.2 72 2.9 SSE 26 32 14 17 1018.1 1018.0 0.0
11/07:30pm 18.7 15.3 13.8 73 2.8 SE 24 33 13 18 1017.6 1017.5 0.0
11/07:00pm 19.3 16.1 14.3 73 2.9 SSE 24 32 13 17 1017.6 1017.5 0.0
11/06:30pm 19.9 17.2 14.5 71 3.1 SSE 22 32 12 17 1017.5 1017.4 0.0
11/06:00pm 20.0 16.9 14.6 71 3.1 SE 24 30 13 16 1017.2 1017.1 0.0
11/05:30pm 20.6 18.4 14.5 68 3.6 SE 19 24 10 13 1016.9 1016.8 0.0
11/05:00pm 21.0 18.8 14.9 68 3.6 SE 20 28 11 15 1016.8 1016.7 0.0
11/04:30pm 21.6 19.4 15.0 66 3.9 SE 20 28 11 15 1017.2 1017.1 0.0
11/04:00pm 22.0 19.9 14.6 63 4.4 SSE 19 24 10 13 1017.3 1017.2 0.0
11/03:30pm 22.0 19.8 14.9 64 4.2 SE 20 26 11 14 1017.4 1017.3 0.0
11/03:00pm 22.3 20.7 14.9 63 4.4 SE 17 22 9 12 1017.4 1017.3 0.0
11/02:30pm 22.4 20.9 15.3 64 4.2 SE 17 22 9 12 1017.6 1017.5 0.0
11/02:00pm 22.4 21.2 15.0 63 4.4 SE 15 20 8 11 1017.8 1017.7 0.0
11/01:30pm 22.1 21.1 15.7 67 3.8 SE 15 20 8 11 1017.9 1017.8 0.0
11/01:00pm 23.0 22.2 15.1 61 4.7 SE 13 17 7 9 1017.9 1017.8 0.0
11/12:30pm 22.3 21.4 14.9 63 4.4 ESE 13 19 7 10 1018.0 1017.9 0.0
11/12:00pm 22.8 21.9 14.9 61 4.7 SE 13 17 7 9 1018.1 1018.0 0.0
11/11:30am 22.0 21.1 14.9 64 4.2 ESE 13 19 7 10 1018.1 1018.0 0.0
11/11:00am 21.9 21.2 15.3 66 3.9 SE 13 19 7 10 1018.0 1017.9 0.0
11/10:30am 20.7 19.3 14.6 68 3.6 SE 15 20 8 11 1018.2 1018.1 0.0
11/10:00am 20.5 18.8 14.6 69 3.4 SE 17 20 9 11 1018.3 1018.2 0.0
11/09:30am 19.8 18.1 14.6 72 3.0 SSE 17 20 9 11 1018.5 1018.4 0.0
11/09:00am 19.2 17.3 14.2 73 2.9 SSE 17 20 9 11 1018.5 1018.4 0.0
11/08:30am 18.7 17.0 14.6 77 2.4 SE 17 19 9 10 1018.0 1017.9 0.0
11/08:00am 18.0 16.6 14.5 80 2.0 SE 15 20 8 11 1017.6 1017.5 0.0
11/07:30am 17.6 16.3 14.7 83 1.7 SE 15 20 8 11 1017.4 1017.3 0.0
11/07:00am 17.6 17.0 14.7 83 1.7 SE 11 17 6 9 1017.2 1017.1 0.0
11/06:30am 17.3 15.6 14.8 85 1.4 SSE 17 20 9 11 1016.9 1016.8 0.0
11/06:00am 17.0 15.1 14.1 83 1.7 SSE 17 22 9 12 1016.7 1016.6 0.0
11/05:30am 17.0 15.5 14.1 83 1.7 SSE 15 20 8 11 1016.6 1016.5 0.0
11/05:00am 17.2 15.3 14.3 83 1.7 SSE 17 20 9 11 1016.5 1016.4 0.0
11/04:30am 17.1 15.1 14.0 82 1.8 SSE 17 22 9 12 1016.4 1016.3 0.0
11/04:00am 17.2 14.9 14.1 82 1.8 SSE 19 22 10 12 1016.3 1016.2 0.0
11/03:30am 17.2 15.2 13.9 81 1.9 SSE 17 22 9 12 1016.4 1016.3 0.0
11/03:00am 17.3 15.3 14.0 81 1.9 SSE 17 22 9 12 1016.5 1016.4 0.0
11/02:30am 17.3 14.9 13.8 80 2.0 SSE 19 22 10 12 1016.7 1016.6 0.0
11/02:00am 17.3 15.3 13.8 80 2.0 SSE 17 22 9 12 1017.0 1016.9 0.0
11/01:30am 17.2 15.1 13.5 79 2.1 SSE 17 20 9 11 1017.2 1017.1 0.0
11/01:00am 17.3 14.8 13.6 79 2.1 SSE 19 24 10 13 1017.2 1017.1 0.0
11/12:30am 17.5 14.8 13.6 78 2.2 SSE 20 26 11 14 1017.3 1017.2 0.0
11/12:00am 17.5 14.7 13.2 76 2.4 SSE 20 24 11 13 1017.2 1017.1 0.0
 
Date/Time
EDT
Temp
°C
App
Temp
°C
Dew
Point
Rel
Hum
%
Delta-T
°C
Wind Press
QNH
hPa
Press
MSL
hPa
Rain
since 9 am
mm
Dir
 
Spd
km/h
Gust
km/h
Spd
kts
Gust
kts
10/11:30pm 17.6 15.0 13.3 76 2.4 SSE 19 28 10 15 1017.3 1017.2 0.0
10/11:00pm 17.6 14.8 12.7 73 2.7 S 19 26 10 14 1017.4 1017.3 0.0
10/10:30pm 17.7 15.4 13.0 74 2.6 S 17 22 9 12 1017.4 1017.3 0.0
10/10:00pm 17.5 15.1 12.6 73 2.7 S 17 22 9 12 1017.2 1017.1 0.0
10/09:30pm 17.8 15.0 13.1 74 2.6 S 20 28 11 15 1017.1 1017.0 0.0
10/09:00pm 17.9 16.4 13.0 73 2.7 S 13 17 7 9 1017.0 1016.9 0.0
10/08:30pm 17.9 16.2 12.6 71 3.0 S 13 17 7 9 1016.9 1016.8 0.0
10/08:00pm 18.8 16.4 12.8 68 3.4 S 17 22 9 12 1016.8 1016.7 0.0
10/07:30pm 18.9 17.3 12.9 68 3.4 S 13 20 7 11 1016.5 1016.4 0.0
10/07:00pm 20.1 18.0 13.6 66 3.7 SSW 17 20 9 11 1016.3 1016.2 0.0
10/06:30pm 19.6 17.7 13.1 66 3.7 S 15 20 8 11 1016.2 1016.1 0.0
10/06:00pm 18.9 16.1 12.6 67 3.5 S 19 24 10 13 1016.1 1016.0 0.0
10/05:30pm 19.9 18.1 13.4 66 3.7 S 15 22 8 12 1015.9 1015.8 0.0
10/05:00pm 19.8 17.7 12.3 62 4.2 SSW 15 19 8 10 1015.9 1015.8 0.0
10/04:30pm 20.1 18.1 12.6 62 4.2 SSW 15 20 8 11 1016.0 1015.9 0.0
10/04:00pm 20.9 19.2 12.6 59 4.7 S 13 17 7 9 1016.1 1016.0 0.0
10/03:30pm 20.3 18.5 12.0 59 4.6 SSW 13 19 7 10 1016.4 1016.3 0.0
10/03:00pm 21.2 20.4 12.9 59 4.7 SSW 9 13 5 7 1016.4 1016.3 0.0
10/02:30pm 21.4 20.4 12.3 56 5.1 S 9 15 5 8 1016.5 1016.4 0.0
10/02:00pm 20.8 19.4 12.2 58 4.8 S 11 13 6 7 1016.8 1016.7 0.0
10/01:30pm 21.6 20.3 12.5 56 5.2 SSE 11 15 6 8 1017.0 1016.9 0.0
10/01:00pm 21.3 20.0 12.4 57 5.0 SSE 11 15 6 8 1017.0 1016.9 0.0
10/12:30pm 21.1 19.7 12.3 57 5.0 SE 11 13 6 7 1017.2 1017.1 0.0
10/12:00pm 20.9 19.8 12.1 57 4.9 SE 9 13 5 7 1017.4 1017.3 0.0
10/11:30am 20.7 19.4 12.4 59 4.7 SE 11 15 6 8 1017.5 1017.4 0.0
10/11:00am 19.4 17.8 12.7 65 3.8 SSE 13 19 7 10 1017.7 1017.6 0.0
10/10:30am 20.0 17.9 12.5 62 4.2 SSE 15 20 8 11 1017.8 1017.7 0.0
10/10:00am 18.7 16.9 12.0 65 3.7 SSE 13 19 7 10 1017.7 1017.6 0.0
10/09:30am 17.9 15.8 12.4 70 3.1 SSE 15 20 8 11 1017.5 1017.4 0.0
10/09:00am 17.4 14.8 12.1 71 2.9 SSE 17 22 9 12 1017.5 1017.4 0.0
10/08:30am 17.9 15.9 12.6 71 3.0 SE 15 19 8 10 1016.9 1016.8 0.0
10/08:00am 16.7 15.3 12.3 75 2.4 SE 11 17 6 9 1016.6 1016.5 0.0
10/07:30am 16.3 14.9 12.1 76 2.3 SE 11 19 6 10 1016.5 1016.4 0.0
10/07:00am 16.0 13.8 12.0 77 2.2 SE 15 19 8 10 1016.3 1016.2 0.0
10/06:30am 15.7 14.6 11.9 78 2.1 SE 9 17 5 9 1015.9 1015.8 0.0
10/06:00am 15.8 14.7 12.0 78 2.1 SE 9 17 5 9 1015.9 1015.8 0.0
10/05:30am 16.0 14.5 12.0 77 2.2 ESE 11 17 6 9 1015.9 1015.8 0.0
10/05:00am 16.1 14.2 11.9 76 2.3 SE 13 19 7 10 1016.0 1015.9 0.0
10/04:30am 16.5 13.5 12.1 75 2.4 SE 19 24 10 13 1016.1 1016.0 0.0
10/04:00am 16.4 14.2 12.2 76 2.3 SSE 15 20 8 11 1016.1 1016.0 0.0
10/03:30am 16.4 14.5 11.8 74 2.5 ESE 13 20 7 11 1016.2 1016.1 0.0
10/03:00am 16.5 15.1 12.3 76 2.3 ESE 11 17 6 9 1016.5 1016.4 0.0
10/02:30am 16.5 14.8 12.3 76 2.3 SE 13 19 7 10 1016.8 1016.7 0.0
10/02:00am 16.7 14.6 12.3 75 2.4 SE 15 20 8 11 1017.2 1017.1 0.0
10/01:30am 16.8 14.4 12.5 76 2.4 SE 17 24 9 13 1017.6 1017.5 0.0
10/01:00am 16.8 14.7 12.5 76 2.4 SE 15 24 8 13 1017.7 1017.6 0.0
10/12:30am 16.6 13.9 12.8 78 2.1 SE 19 24 10 13 1017.8 1017.7 0.0
10/12:00am 16.5 13.7 12.5 77 2.2 SE 19 26 10 14 1018.0 1017.9 0.0
 
Date/Time
EDT
Temp
°C
App
Temp
°C
Dew
Point
Rel
Hum
%
Delta-T
°C
Wind Press
QNH
hPa
Press
MSL
hPa
Rain
since 9 am
mm
Dir
 
Spd
km/h
Gust
km/h
Spd
kts
Gust
kts
09/11:30pm 16.5 13.7 12.5 77 2.2 SE 19 26 10 14 1018.3 1018.2 0.0
09/11:00pm 16.6 13.8 12.6 77 2.2 SE 19 22 10 12 1018.5 1018.4 0.0
09/10:30pm 16.6 13.8 12.6 77 2.2 SE 19 24 10 13 1018.7 1018.6 0.0
09/10:00pm 16.6 13.9 12.8 78 2.1 SE 19 24 10 13 1018.7 1018.6 0.0
09/09:30pm 16.6 14.6 12.6 77 2.2 SE 15 22 8 12 1018.4 1018.3 0.0
09/09:00pm 16.8 14.4 12.5 76 2.4 SE 17 22 9 12 1018.7 1018.6 0.0
09/08:30pm 17.0 14.4 12.1 73 2.7 SSE 17 20 9 11 1018.8 1018.7 0.0
09/08:00pm 17.8 15.4 12.5 71 2.9 SSE 17 22 9 12 1018.8 1018.7 0.0
09/07:30pm 18.3 15.5 12.5 69 3.2 SSE 19 22 10 12 1018.8 1018.7 0.0
09/07:00pm 18.9 16.2 12.9 68 3.4 SSE 19 22 10 12 1018.8 1018.7 0.0

Other Formats:

Comma delimited format used in spreadsheet applications
http://www.bom.gov.au/fwo/IDV60801/IDV60801.94826.axf

JavaScript Object Notation format (JSON) in row-major order
http://www.bom.gov.au/fwo/IDV60801/IDV60801.94826.json